Time;durP1;ratioP1;P1;durP2;ratioP2;P2;SDS_P1;SDS_P2;PMS_P1;PMS_P2;Temp;Humidity;BMP_temperature;BMP_pressure;BME280_temperature;BME280_humidity;BME280_pressure;Samples;Min_cycle;Max_cycle;Signal;HPM_P1;HPM_P2
2023/03/30 00:01:55;;;;;;;12.52;10.07;;;11.20;99.90;;;;;;5094726;28;20062;-84
2023/03/30 00:04:25;;;;;;;13.95;9.25;;;11.30;99.90;;;;;;5088091;28;20059;-85
2023/03/30 00:06:51;;;;;;;14.07;9.38;;;11.30;99.90;;;;;;5113087;27;20069;-84
2023/03/30 00:09:17;;;;;;;13.45;9.35;;;11.30;99.90;;;;;;5105009;28;20032;-84
2023/03/30 00:11:44;;;;;;;17.52;9.73;;;11.40;99.90;;;;;;5108724;28;20028;-84
2023/03/30 00:14:11;;;;;;;12.27;9.10;;;11.40;99.90;;;;;;5113114;28;20073;-83
2023/03/30 00:16:36;;;;;;;12.35;9.05;;;11.40;99.90;;;;;;5093308;28;20040;-84
2023/03/30 00:19:02;;;;;;;14.00;9.13;;;11.40;99.90;;;;;;5112343;28;20031;-84
2023/03/30 00:21:27;;;;;;;13.00;8.98;;;11.40;99.90;;;;;;5109373;28;20063;-84
2023/03/30 00:23:53;;;;;;;13.88;9.02;;;11.40;99.90;;;;;;5111773;28;20039;-85
2023/03/30 00:26:19;;;;;;;9.85;8.30;;;11.40;99.90;;;;;;5114090;28;20036;-84
2023/03/30 00:28:45;;;;;;;14.40;9.23;;;11.40;99.90;;;;;;5101389;28;20119;-83
2023/03/30 00:31:11;;;;;;;11.00;8.10;;;11.50;99.90;;;;;;5108990;28;20032;-84
2023/03/30 00:33:36;;;;;;;12.02;7.90;;;11.50;99.90;;;;;;5140740;27;20127;-84
2023/03/30 00:36:02;;;;;;;10.95;7.40;;;11.50;99.90;;;;;;5110806;28;20044;-87
2023/03/30 00:38:28;;;;;;;11.23;7.97;;;11.50;99.90;;;;;;5114799;28;20569;-85
2023/03/30 00:40:56;;;;;;;11.13;8.27;;;11.50;99.90;;;;;;5108260;28;20035;-85
2023/03/30 00:43:23;;;;;;;13.38;8.20;;;11.50;99.90;;;;;;5105544;28;20509;-84
2023/03/30 00:45:49;;;;;;;15.40;8.52;;;11.50;99.90;;;;;;5112643;27;20425;-84
2023/03/30 00:48:26;;;;;;;11.52;8.05;;;11.60;99.90;;;;;;5109641;28;20119;-84
2023/03/30 00:51:00;;;;;;;11.95;7.85;;;11.60;99.90;;;;;;5106337;28;20040;-84
2023/03/30 00:53:47;;;;;;;10.73;7.90;;;11.60;99.90;;;;;;5104271;27;20036;-83
2023/03/30 00:56:16;;;;;;;11.80;8.20;;;11.70;99.90;;;;;;5103750;28;20047;-83
2023/03/30 00:58:43;;;;;;;9.73;7.45;;;11.50;99.90;;;;;;5111194;28;20047;-83
2023/03/30 01:01:12;;;;;;;10.35;6.90;;;11.50;99.90;;;;;;5103334;28;20042;-82
2023/03/30 01:03:44;;;;;;;10.20;7.75;;;11.50;99.90;;;;;;5109866;28;20118;-83
2023/03/30 01:06:11;;;;;;;11.98;8.02;;;11.50;99.90;;;;;;5092567;28;20063;-83
2023/03/30 01:08:37;;;;;;;12.40;7.63;;;11.50;99.90;;;;;;5109720;28;20054;-84
2023/03/30 01:11:05;;;;;;;11.35;7.60;;;11.50;99.90;;;;;;5119657;28;20043;-83
2023/03/30 01:13:44;;;;;;;9.73;7.47;;;11.40;99.90;;;;;;5088182;28;20403;-83
2023/03/30 01:16:47;;;;;;;9.52;6.72;;;11.40;99.90;;;;;;5116049;27;20575;-84
2023/03/30 01:19:50;;;;;;;9.77;7.45;;;11.40;99.90;;;;;;5091168;28;20031;-83
2023/03/30 01:22:40;;;;;;;9.85;6.72;;;11.40;99.90;;;;;;5093192;28;20031;-83
2023/03/30 01:25:25;;;;;;;9.30;6.82;;;11.40;99.90;;;;;;5108290;28;20096;-83
2023/03/30 01:28:27;;;;;;;15.20;7.25;;;11.40;99.90;;;;;;5100446;27;20482;-84
2023/03/30 01:31:04;;;;;;;10.15;6.75;;;11.40;99.90;;;;;;5118374;27;20046;-84
2023/03/30 01:33:59;;;;;;;10.35;7.15;;;11.40;99.90;;;;;;5099587;27;20085;-83
2023/03/30 01:36:53;;;;;;;7.72;6.13;;;11.40;99.90;;;;;;5114268;27;20046;-84
2023/03/30 01:39:27;;;;;;;9.23;6.03;;;11.40;99.90;;;;;;5086163;28;20518;-84
2023/03/30 01:42:12;;;;;;;12.00;6.53;;;11.40;99.90;;;;;;5140151;27;20843;-83
2023/03/30 01:44:44;;;;;;;10.05;6.15;;;11.50;99.90;;;;;;5107046;28;20051;-83
2023/03/30 01:47:35;;;;;;;9.90;6.18;;;11.50;99.90;;;;;;5111267;28;20044;-83
2023/03/30 01:50:12;;;;;;;9.85;6.05;;;11.50;99.90;;;;;;5095632;27;20047;-84
2023/03/30 01:52:58;;;;;;;11.60;6.88;;;11.40;99.90;;;;;;5112278;27;20036;-83
2023/03/30 01:55:45;;;;;;;10.70;5.72;;;11.40;99.90;;;;;;5096204;27;20067;-83
2023/03/30 01:58:37;;;;;;;9.48;6.32;;;11.40;99.90;;;;;;5118385;27;20093;-84
2023/03/30 02:01:05;;;;;;;10.10;6.10;;;11.40;99.90;;;;;;5107701;28;20046;-84
2023/03/30 02:03:35;;;;;;;10.45;6.10;;;11.40;99.90;;;;;;5112016;27;20425;-83
2023/03/30 02:06:11;;;;;;;9.60;5.38;;;11.40;99.90;;;;;;5136049;27;20035;-83
2023/03/30 02:08:38;;;;;;;8.95;5.60;;;11.50;99.90;;;;;;5113756;27;20514;-85
2023/03/30 02:11:04;;;;;;;11.18;6.03;;;11.50;99.90;;;;;;5108912;27;20040;-84
2023/03/30 02:13:31;;;;;;;8.35;5.22;;;11.60;99.90;;;;;;5109181;27;20043;-85
2023/03/30 02:16:02;;;;;;;7.65;5.38;;;11.60;99.90;;;;;;5091960;27;20039;-84
2023/03/30 02:18:27;;;;;;;7.68;5.32;;;11.60;99.90;;;;;;5107246;27;20048;-83
2023/03/30 02:20:57;;;;;;;9.80;5.47;;;11.60;99.90;;;;;;5103831;28;20499;-83
2023/03/30 02:23:27;;;;;;;9.38;4.80;;;11.60;99.90;;;;;;5116744;27;20036;-83
2023/03/30 02:25:53;;;;;;;9.88;5.35;;;11.60;99.90;;;;;;5143913;27;20034;-83
2023/03/30 02:28:18;;;;;;;7.38;4.95;;;11.60;99.90;;;;;;5115378;27;20487;-83
2023/03/30 02:30:45;;;;;;;9.27;4.95;;;11.70;99.90;;;;;;5112188;27;20100;-83
2023/03/30 02:33:43;;;;;;;12.13;5.20;;;11.70;99.90;;;;;;5113153;28;20039;-84
2023/03/30 02:36:15;;;;;;;8.27;4.82;;;11.70;99.90;;;;;;5110472;28;20032;-84
2023/03/30 02:39:15;;;;;;;9.80;4.68;;;11.70;99.90;;;;;;5124142;27;20494;-84
2023/03/30 02:42:02;;;;;;;9.50;4.90;;;11.60;99.90;;;;;;5108453;27;20402;-84
2023/03/30 02:44:58;;;;;;;10.68;4.60;;;11.70;99.90;;;;;;5089129;28;20070;-83
2023/03/30 02:47:50;;;;;;;9.90;4.90;;;11.60;99.90;;;;;;5115999;27;20491;-83
2023/03/30 02:50:40;;;;;;;7.00;4.68;;;11.70;99.90;;;;;;5106283;28;20043;-83
2023/03/30 02:54:00;;;;;;;9.15;4.50;;;11.80;99.90;;;;;;5109863;27;20055;-83
2023/03/30 02:56:38;;;;;;;9.40;4.30;;;11.80;99.90;;;;;;5042659;28;20093;-84
2023/03/30 02:59:11;;;;;;;7.70;4.07;;;11.80;99.90;;;;;;5031456;28;20047;-83
2023/03/30 03:01:47;;;;;;;5.40;3.73;;;11.80;99.90;;;;;;5074035;28;20410;-84
2023/03/30 03:04:14;;;;;;;10.90;3.80;;;11.80;99.90;;;;;;5085412;27;20332;-84
2023/03/30 03:06:41;;;;;;;9.25;4.03;;;11.80;99.90;;;;;;5108931;27;20035;-83
2023/03/30 03:09:07;;;;;;;11.15;4.10;;;11.80;99.90;;;;;;5112223;27;20043;-83
2023/03/30 03:11:32;;;;;;;8.40;4.22;;;11.80;99.90;;;;;;5110212;27;20398;-84
2023/03/30 03:13:58;;;;;;;8.98;4.30;;;11.90;99.90;;;;;;5109878;27;20035;-84
2023/03/30 03:16:24;;;;;;;8.23;3.78;;;12.00;99.90;;;;;;5105498;28;20456;-84
2023/03/30 03:18:50;;;;;;;7.40;3.95;;;12.00;99.90;;;;;;5104797;28;20035;-83
2023/03/30 03:21:16;;;;;;;7.45;3.85;;;12.00;99.90;;;;;;5115561;27;20080;-83
2023/03/30 03:23:41;;;;;;;9.00;3.95;;;12.00;99.90;;;;;;5111670;27;20550;-82
2023/03/30 03:26:08;;;;;;;7.13;3.80;;;12.00;99.90;;;;;;5117309;27;20034;-84
2023/03/30 03:28:34;;;;;;;7.28;3.30;;;11.90;99.90;;;;;;5091526;27;20046;-82
2023/03/30 03:31:01;;;;;;;7.32;3.70;;;11.90;99.90;;;;;;5113065;27;20074;-82
2023/03/30 03:33:30;;;;;;;8.07;4.13;;;11.80;99.90;;;;;;5114456;27;21372;-84
2023/03/30 03:35:58;;;;;;;9.05;3.83;;;11.80;99.90;;;;;;5108228;27;20043;-83
2023/03/30 03:38:25;;;;;;;8.15;3.33;;;11.80;99.90;;;;;;5104852;28;20491;-84
2023/03/30 03:40:53;;;;;;;8.88;3.45;;;11.80;99.90;;;;;;5106301;27;20040;-83
2023/03/30 03:43:19;;;;;;;9.30;3.42;;;11.80;99.90;;;;;;5118329;27;20036;-82
2023/03/30 03:45:46;;;;;;;6.78;3.30;;;11.90;99.90;;;;;;5111489;27;20039;-83
2023/03/30 03:48:13;;;;;;;7.80;3.38;;;11.90;99.90;;;;;;5104415;28;20038;-83
2023/03/30 03:50:38;;;;;;;7.55;3.45;;;11.90;99.90;;;;;;5108091;27;20047;-84
2023/03/30 03:53:04;;;;;;;9.63;3.13;;;11.90;99.90;;;;;;5094540;28;20040;-83
2023/03/30 03:55:33;;;;;;;8.40;3.25;;;11.90;99.90;;;;;;5129613;27;20039;-84
2023/03/30 03:57:59;;;;;;;7.18;3.40;;;12.00;99.90;;;;;;5105623;28;20039;-83
2023/03/30 04:00:25;;;;;;;8.15;3.15;;;12.00;99.90;;;;;;5103152;27;20036;-83
2023/03/30 04:02:51;;;;;;;7.05;2.88;;;12.00;99.90;;;;;;5112499;27;20419;-84
2023/03/30 04:05:16;;;;;;;9.75;3.17;;;12.00;99.90;;;;;;5102462;28;20038;-83
2023/03/30 04:07:45;;;;;;;8.20;2.90;;;12.00;99.90;;;;;;5092207;28;20051;-84
2023/03/30 04:10:11;;;;;;;8.73;3.00;;;12.00;99.90;;;;;;5106255;28;20063;-83
2023/03/30 04:12:37;;;;;;;8.48;3.25;;;12.00;99.90;;;;;;5115321;27;20045;-83
2023/03/30 04:15:04;;;;;;;7.43;2.60;;;12.00;99.90;;;;;;5105390;28;20058;-83
2023/03/30 04:17:32;;;;;;;5.25;2.70;;;11.90;99.90;;;;;;5112376;27;20075;-83
2023/03/30 04:20:03;;;;;;;5.50;2.30;;;11.90;99.90;;;;;;5116157;27;20048;-83
2023/03/30 04:22:31;;;;;;;7.65;2.50;;;11.90;99.90;;;;;;5112640;28;20039;-84
2023/03/30 04:24:58;;;;;;;6.45;2.58;;;11.90;99.90;;;;;;5112600;28;20046;-83
2023/03/30 04:27:24;;;;;;;7.40;2.30;;;12.00;99.90;;;;;;5107607;28;20031;-85
2023/03/30 04:29:50;;;;;;;6.95;2.28;;;11.90;99.90;;;;;;5108956;28;20039;-84
2023/03/30 04:32:19;;;;;;;8.35;2.53;;;11.90;99.90;;;;;;5109585;28;20122;-83
2023/03/30 04:34:46;;;;;;;10.35;2.70;;;11.90;99.90;;;;;;5109351;28;20039;-83
2023/03/30 04:37:17;;;;;;;6.47;2.22;;;11.90;99.90;;;;;;5086605;28;20047;-85
2023/03/30 04:39:43;;;;;;;7.50;2.47;;;11.90;99.90;;;;;;5108270;28;20084;-85
2023/03/30 04:42:13;;;;;;;6.07;2.63;;;11.80;99.90;;;;;;5108184;28;20452;-84
2023/03/30 04:44:41;;;;;;;5.85;2.72;;;11.80;99.90;;;;;;5108144;28;20031;-84
2023/03/30 04:47:07;;;;;;;6.20;2.47;;;11.90;99.90;;;;;;5113029;28;20607;-84
2023/03/30 04:49:33;;;;;;;10.00;2.50;;;11.90;99.90;;;;;;5109846;28;20111;-84
2023/03/30 04:51:58;;;;;;;7.18;2.30;;;11.80;99.90;;;;;;5107050;28;20080;-83
2023/03/30 04:54:24;;;;;;;10.48;3.05;;;11.90;99.90;;;;;;5115713;27;20051;-84
2023/03/30 04:56:50;;;;;;;6.38;2.20;;;11.90;99.90;;;;;;5116534;27;20044;-83
2023/03/30 04:59:15;;;;;;;5.68;2.83;;;11.90;99.90;;;;;;5135784;27;20059;-84
2023/03/30 05:01:41;;;;;;;7.97;2.35;;;11.90;99.90;;;;;;5096912;27;20032;-84
2023/03/30 05:04:07;;;;;;;9.40;2.60;;;11.90;99.90;;;;;;5105899;27;20056;-83
2023/03/30 05:06:33;;;;;;;5.65;2.60;;;11.90;99.90;;;;;;5119961;27;20027;-83
2023/03/30 05:08:59;;;;;;;7.90;2.85;;;11.90;99.90;;;;;;5118327;27;20063;-84
2023/03/30 05:11:25;;;;;;;8.60;2.50;;;11.90;99.90;;;;;;5118202;27;20039;-84
2023/03/30 05:13:52;;;;;;;8.32;2.45;;;11.90;99.90;;;;;;5093584;28;20031;-84
2023/03/30 05:16:19;;;;;;;7.88;2.60;;;11.90;99.90;;;;;;5109998;27;20039;-83
2023/03/30 05:18:44;;;;;;;9.93;2.80;;;11.90;99.90;;;;;;5101032;27;20027;-84
2023/03/30 05:21:10;;;;;;;7.90;3.00;;;12.00;99.90;;;;;;5113183;27;20108;-82
2023/03/30 05:23:38;;;;;;;8.65;3.00;;;12.00;99.90;;;;;;5115944;27;20058;-82
2023/03/30 05:26:05;;;;;;;8.55;2.83;;;12.10;99.90;;;;;;5112238;27;20027;-82
2023/03/30 05:28:32;;;;;;;7.35;2.75;;;12.10;99.90;;;;;;5108442;28;20043;-82
2023/03/30 05:30:57;;;;;;;8.43;2.80;;;12.10;99.90;;;;;;5110353;28;20087;-82
2023/03/30 05:33:23;;;;;;;9.30;2.80;;;12.10;99.90;;;;;;5101093;28;20448;-83
2023/03/30 05:35:48;;;;;;;6.53;2.80;;;12.10;99.90;;;;;;5110692;27;20050;-82
2023/03/30 05:38:14;;;;;;;11.70;3.10;;;12.10;99.90;;;;;;5109467;27;20035;-83
2023/03/30 05:40:39;;;;;;;12.68;3.20;;;12.10;99.90;;;;;;5110131;27;20059;-82
2023/03/30 05:43:05;;;;;;;9.52;3.13;;;12.10;99.90;;;;;;5117123;27;20039;-82
2023/03/30 05:45:31;;;;;;;9.60;3.15;;;12.10;99.90;;;;;;5110201;28;20574;-83
2023/03/30 05:47:56;;;;;;;11.10;3.30;;;12.10;99.90;;;;;;5111257;27;20065;-82
2023/03/30 05:50:22;;;;;;;14.15;3.53;;;12.10;99.90;;;;;;5112425;27;20061;-82
2023/03/30 05:52:48;;;;;;;7.95;3.50;;;12.10;99.90;;;;;;5097906;28;20039;-83
2023/03/30 05:55:14;;;;;;;13.80;3.50;;;12.10;99.90;;;;;;5096913;28;20041;-83
2023/03/30 05:57:40;;;;;;;11.32;3.47;;;12.10;99.90;;;;;;5106246;27;20040;-83
2023/03/30 06:00:06;;;;;;;9.48;3.30;;;12.10;99.90;;;;;;5122334;27;20039;-83
2023/03/30 06:02:32;;;;;;;11.13;3.45;;;12.10;99.90;;;;;;5110066;28;20036;-82
2023/03/30 06:05:00;;;;;;;11.40;3.88;;;12.10;99.90;;;;;;5110845;27;20258;-81
2023/03/30 06:07:26;;;;;;;9.25;3.35;;;12.00;99.90;;;;;;5109937;27;20043;-83
2023/03/30 06:09:52;;;;;;;6.40;3.22;;;12.10;99.90;;;;;;5114292;27;20040;-82
2023/03/30 06:12:17;;;;;;;11.35;3.63;;;12.10;99.90;;;;;;5143988;27;20426;-83
2023/03/30 06:14:43;;;;;;;8.77;3.58;;;12.10;99.90;;;;;;5109520;28;20028;-82
2023/03/30 06:17:11;;;;;;;9.00;3.38;;;12.20;99.90;;;;;;5142860;27;20093;-82
2023/03/30 06:19:37;;;;;;;9.45;3.58;;;12.20;99.90;;;;;;5117642;27;20032;-83
2023/03/30 06:22:03;;;;;;;8.35;3.25;;;12.20;99.90;;;;;;5111845;27;20032;-82
2023/03/30 06:24:29;;;;;;;7.32;3.17;;;12.20;99.90;;;;;;5108617;28;20124;-81
2023/03/30 06:26:55;;;;;;;7.25;3.58;;;12.20;99.90;;;;;;5107883;28;20038;-82
2023/03/30 06:29:21;;;;;;;8.45;3.47;;;12.10;99.90;;;;;;5114824;27;20057;-83
2023/03/30 06:31:47;;;;;;;8.35;4.20;;;12.10;99.90;;;;;;5113061;27;20107;-83
2023/03/30 06:34:13;;;;;;;10.15;4.03;;;12.20;99.90;;;;;;5095761;28;20119;-84
2023/03/30 06:36:38;;;;;;;11.60;4.28;;;12.20;99.90;;;;;;5112674;27;20115;-82
2023/03/30 06:39:08;;;;;;;10.10;4.00;;;12.20;99.90;;;;;;5111178;27;20044;-83
2023/03/30 06:41:33;;;;;;;8.68;4.00;;;12.20;99.90;;;;;;5115504;27;20634;-82
2023/03/30 06:43:59;;;;;;;10.95;4.03;;;12.20;99.90;;;;;;5115798;27;20048;-82
2023/03/30 06:46:25;;;;;;;9.15;3.95;;;12.20;99.90;;;;;;5095230;28;20032;-83
2023/03/30 06:48:51;;;;;;;9.25;3.90;;;12.30;99.90;;;;;;5113438;28;20052;-82
2023/03/30 06:51:17;;;;;;;10.15;4.20;;;12.30;99.90;;;;;;5113910;28;20527;-82
2023/03/30 06:53:42;;;;;;;9.43;3.75;;;12.40;99.90;;;;;;5106095;28;20129;-82
2023/03/30 06:56:08;;;;;;;9.73;3.90;;;12.40;99.90;;;;;;5111535;27;20104;-83
2023/03/30 06:58:34;;;;;;;9.43;3.55;;;12.30;99.90;;;;;;5109515;27;20550;-82
2023/03/30 07:01:09;;;;;;;10.18;3.65;;;12.40;99.90;;;;;;5109887;27;20039;-83
2023/03/30 07:03:34;;;;;;;13.35;3.65;;;12.40;99.90;;;;;;5101729;27;20054;-82
2023/03/30 07:06:00;;;;;;;10.35;3.88;;;12.40;99.90;;;;;;5113217;27;20036;-82
2023/03/30 07:08:25;;;;;;;11.00;3.45;;;12.40;99.90;;;;;;5116772;27;20035;-82
2023/03/30 07:10:51;;;;;;;12.10;3.42;;;12.40;99.90;;;;;;5116974;27;20043;-83
2023/03/30 07:13:17;;;;;;;10.05;3.10;;;12.60;99.90;;;;;;5111553;28;20061;-82
2023/03/30 07:15:44;;;;;;;9.88;3.05;;;12.50;99.90;;;;;;5109960;28;20035;-82
2023/03/30 07:18:09;;;;;;;12.38;2.88;;;12.50;99.90;;;;;;5109561;28;20039;-82
2023/03/30 07:20:35;;;;;;;9.98;2.80;;;12.50;99.90;;;;;;5109563;28;20082;-82
2023/03/30 07:23:01;;;;;;;10.10;2.70;;;12.50;99.90;;;;;;5112296;28;20126;-81
2023/03/30 07:25:27;;;;;;;13.32;3.67;;;12.50;99.90;;;;;;5115813;27;20051;-82
2023/03/30 07:27:52;;;;;;;16.85;2.80;;;12.50;99.90;;;;;;5138313;27;20043;-83
2023/03/30 07:30:18;;;;;;;11.93;2.65;;;12.50;99.90;;;;;;5111308;28;20035;-81
2023/03/30 07:32:44;;;;;;;15.30;4.28;;;12.50;99.90;;;;;;5108029;28;20047;-82
2023/03/30 07:35:10;;;;;;;11.02;3.10;;;12.50;99.90;;;;;;5102967;28;20040;-81
2023/03/30 07:37:38;;;;;;;10.70;3.25;;;12.40;99.90;;;;;;5112506;28;20036;-82
2023/03/30 07:40:09;;;;;;;14.15;3.15;;;12.40;99.90;;;;;;5102068;28;20047;-82
2023/03/30 07:42:35;;;;;;;11.40;3.45;;;12.40;99.90;;;;;;5103164;27;20031;-82
2023/03/30 07:45:02;;;;;;;13.20;3.67;;;12.40;99.90;;;;;;5133434;27;20032;-82
2023/03/30 07:47:27;;;;;;;13.57;3.58;;;12.30;99.90;;;;;;5111260;27;20050;-82
2023/03/30 07:49:53;;;;;;;12.48;3.13;;;12.30;99.90;;;;;;5099993;28;20036;-82
2023/03/30 07:52:18;;;;;;;14.18;2.85;;;12.20;99.90;;;;;;5109073;27;20080;-82
2023/03/30 07:54:45;;;;;;;17.25;3.30;;;12.10;99.90;;;;;;5120673;27;20034;-83
2023/03/30 07:57:11;;;;;;;20.75;3.70;;;12.10;99.90;;;;;;5088544;28;20039;-82
2023/03/30 07:59:37;;;;;;;16.83;3.30;;;12.00;99.90;;;;;;5106221;28;20032;-81
2023/03/30 08:02:04;;;;;;;15.82;3.92;;;12.00;99.90;;;;;;5092172;28;20042;-82
2023/03/30 08:04:30;;;;;;;20.52;4.25;;;12.00;99.90;;;;;;5112831;27;20555;-82
2023/03/30 08:06:56;;;;;;;17.55;3.83;;;11.90;99.90;;;;;;5092327;27;20031;-83
2023/03/30 08:09:22;;;;;;;14.32;3.15;;;11.80;99.90;;;;;;5110744;27;20032;-83
2023/03/30 08:11:47;;;;;;;15.32;3.53;;;11.70;99.90;;;;;;5086138;28;20049;-82
2023/03/30 08:14:13;;;;;;;18.35;3.92;;;11.70;99.90;;;;;;5101244;28;20035;-82
2023/03/30 08:16:38;;;;;;;19.35;4.00;;;11.70;99.90;;;;;;5102932;28;20036;-83
2023/03/30 08:19:04;;;;;;;20.25;3.70;;;11.70;99.90;;;;;;5107421;28;20095;-83
2023/03/30 08:21:29;;;;;;;17.58;4.78;;;11.60;99.90;;;;;;5114645;28;20036;-83
2023/03/30 08:23:57;;;;;;;22.50;4.00;;;11.70;99.90;;;;;;5110150;28;20038;-82
2023/03/30 08:26:27;;;;;;;19.45;3.65;;;11.70;99.90;;;;;;5106623;28;20092;-83
2023/03/30 08:28:53;;;;;;;22.25;4.60;;;11.70;99.90;;;;;;5111394;28;20522;-83
2023/03/30 08:31:19;;;;;;;18.23;4.50;;;11.60;99.90;;;;;;5095598;28;20035;-83
2023/03/30 08:33:46;;;;;;;16.75;4.50;;;11.60;99.90;;;;;;5116196;28;20499;-83
2023/03/30 08:36:12;;;;;;;16.67;3.95;;;11.60;99.90;;;;;;5113613;28;20036;-82
2023/03/30 08:38:38;;;;;;;16.40;3.78;;;11.60;99.90;;;;;;5117308;27;20388;-78
2023/03/30 08:41:26;;;;;;;22.10;4.15;;;11.50;99.90;;;;;;5121588;27;20092;-77
2023/03/30 08:43:59;;;;;;;16.20;4.30;;;11.50;99.90;;;;;;5119099;27;20033;-79
2023/03/30 08:46:25;;;;;;;26.30;4.63;;;11.60;99.90;;;;;;5115186;28;20051;-79
2023/03/30 08:48:52;;;;;;;19.23;3.83;;;11.60;99.90;;;;;;5123429;27;20108;-79
2023/03/30 08:51:23;;;;;;;20.60;5.03;;;11.60;99.90;;;;;;5116631;28;20027;-79
2023/03/30 08:54:01;;;;;;;19.80;4.82;;;11.60;99.90;;;;;;5099097;28;20102;-78
2023/03/30 08:56:39;;;;;;;27.50;3.90;;;11.70;99.90;;;;;;5118686;28;20042;-78
2023/03/30 08:59:51;;;;;;;21.55;4.40;;;11.90;99.90;;;;;;5099642;28;20505;-78
2023/03/30 09:02:29;;;;;;;20.00;4.47;;;12.10;99.90;;;;;;5089388;28;20048;-79
2023/03/30 09:05:22;;;;;;;21.10;3.97;;;12.20;99.90;;;;;;5116711;28;20042;-78
2023/03/30 09:08:09;;;;;;;23.73;4.47;;;12.20;99.90;;;;;;5111043;27;20031;-79
2023/03/30 09:10:44;;;;;;;20.75;4.70;;;12.30;99.90;;;;;;5096540;28;20065;-79
2023/03/30 09:13:15;;;;;;;20.40;3.83;;;12.30;99.90;;;;;;5116515;27;20085;-78
2023/03/30 09:15:52;;;;;;;16.05;3.78;;;12.30;99.90;;;;;;5119673;27;20043;-78
2023/03/30 09:18:24;;;;;;;21.40;4.38;;;12.40;99.90;;;;;;5107683;28;20127;-78
2023/03/30 09:20:53;;;;;;;22.08;4.25;;;12.50;99.90;;;;;;5123029;27;20035;-79
2023/03/30 09:23:18;;;;;;;20.48;4.50;;;12.70;99.90;;;;;;5111181;28;20034;-79
2023/03/30 09:25:50;;;;;;;22.48;4.32;;;12.70;99.90;;;;;;5109832;28;20055;-78
2023/03/30 09:28:22;;;;;;;19.45;4.05;;;12.90;99.90;;;;;;5117236;27;20069;-78
2023/03/30 09:30:54;;;;;;;21.50;4.07;;;12.90;99.90;;;;;;5111918;27;20081;-78
2023/03/30 09:33:48;;;;;;;21.73;4.38;;;13.10;99.90;;;;;;5100218;27;20043;-79
2023/03/30 09:36:23;;;;;;;24.05;3.95;;;13.30;99.90;;;;;;5111931;27;20083;-79
2023/03/30 09:38:49;;;;;;;22.67;4.13;;;13.40;99.90;;;;;;5115847;28;20047;-78
2023/03/30 09:41:29;;;;;;;15.75;3.33;;;13.40;99.90;;;;;;5109676;28;20028;-79
2023/03/30 09:43:58;;;;;;;17.58;3.38;;;13.30;99.90;;;;;;5109309;27;20040;-79
2023/03/30 09:46:24;;;;;;;14.52;3.05;;;13.10;99.90;;;;;;5098992;27;20044;-78
2023/03/30 09:48:50;;;;;;;16.13;3.22;;;13.10;99.90;;;;;;5109320;27;20096;-78
2023/03/30 09:51:27;;;;;;;15.15;3.15;;;13.00;99.90;;;;;;5104710;28;20031;-83
2023/03/30 09:54:03;;;;;;;17.38;3.10;;;12.90;99.90;;;;;;5109163;27;20126;-86
2023/03/30 09:56:45;;;;;;;15.85;3.53;;;12.90;99.90;;;;;;5114893;27;20099;-87
2023/03/30 09:59:31;;;;;;;19.33;3.50;;;12.80;99.90;;;;;;5111638;27;20049;-86
2023/03/30 10:02:09;;;;;;;19.98;3.70;;;12.70;99.90;;;;;;5104331;27;20031;-86
2023/03/30 10:05:03;;;;;;;17.23;3.22;;;12.60;99.90;;;;;;5114122;27;20027;-87
2023/03/30 10:07:33;;;;;;;15.57;3.00;;;12.50;99.90;;;;;;5107039;28;20035;-87
2023/03/30 10:10:12;;;;;;;14.43;3.10;;;12.40;99.90;;;;;;5116148;27;20036;-86
2023/03/30 10:12:38;;;;;;;18.77;3.28;;;12.40;99.90;;;;;;5090753;28;20035;-86
2023/03/30 10:15:04;;;;;;;13.25;3.03;;;12.50;99.90;;;;;;5102468;28;20036;-87
2023/03/30 10:17:30;;;;;;;18.20;3.95;;;12.60;99.90;;;;;;5112716;28;20047;-84
2023/03/30 10:20:28;;;;;;;17.27;3.00;;;12.60;99.90;;;;;;5108278;27;20047;-84
2023/03/30 10:22:59;;;;;;;17.90;3.72;;;12.60;99.90;;;;;;5104243;27;20039;-84
2023/03/30 10:25:30;;;;;;;16.50;2.83;;;12.70;99.90;;;;;;5107682;28;20058;-84
2023/03/30 10:28:00;;;;;;;17.17;3.00;;;12.70;99.90;;;;;;5091694;28;20036;-84
2023/03/30 10:30:27;;;;;;;13.48;2.70;;;12.70;99.90;;;;;;5090745;28;20445;-86
2023/03/30 10:32:58;;;;;;;18.35;3.33;;;12.60;99.90;;;;;;5096421;28;20623;-86
2023/03/30 10:35:30;;;;;;;15.00;2.92;;;12.60;99.90;;;;;;5105735;27;20031;-85
2023/03/30 10:37:57;;;;;;;16.45;3.13;;;12.50;99.90;;;;;;5097780;28;20065;-87
2023/03/30 10:40:35;;;;;;;12.95;3.28;;;12.50;99.90;;;;;;5106990;28;20036;-86
2023/03/30 10:43:03;;;;;;;16.90;2.85;;;12.50;99.90;;;;;;5104857;28;20040;-86
2023/03/30 10:45:38;;;;;;;11.90;2.63;;;12.50;99.90;;;;;;5087229;28;20114;-87
2023/03/30 10:48:33;;;;;;;20.65;3.25;;;12.50;99.90;;;;;;5112078;28;20074;-86
2023/03/30 10:51:13;;;;;;;20.50;3.55;;;12.60;99.90;;;;;;5137401;27;20054;-87
2023/03/30 10:53:58;;;;;;;23.95;4.22;;;12.60;99.90;;;;;;5106332;27;20121;-86
2023/03/30 10:56:56;;;;;;;18.25;4.05;;;12.60;99.90;;;;;;5095249;28;20043;-87
2023/03/30 10:59:47;;;;;;;17.02;3.03;;;12.70;99.90;;;;;;5108421;28;20567;-85
2023/03/30 11:02:40;;;;;;;18.63;3.83;;;12.70;99.90;;;;;;5111216;28;20039;-87
2023/03/30 11:05:14;;;;;;;16.58;3.28;;;12.80;99.90;;;;;;5104779;28;20067;-86
2023/03/30 11:07:54;;;;;;;;;;;12.80;99.90;;;;;;5109388;28;20078;-82
2023/03/30 11:10:30;;;;;;;15.48;3.17;;;12.90;99.90;;;;;;5106707;28;19920;-84
2023/03/30 11:13:14;;;;;;;16.92;3.67;;;13.00;99.90;;;;;;5106722;27;20039;-83
2023/03/30 11:15:50;;;;;;;18.75;4.25;;;13.10;99.90;;;;;;5104259;28;20036;-84
2023/03/30 11:18:27;;;;;;;20.17;3.35;;;13.20;99.90;;;;;;5128458;27;20044;-84
2023/03/30 11:21:14;;;;;;;18.95;3.83;;;13.20;99.90;;;;;;5107271;28;20499;-84
2023/03/30 11:23:46;;;;;;;22.30;4.75;;;13.30;99.90;;;;;;5105273;28;20568;-84
2023/03/30 11:26:19;;;;;;;16.25;3.78;;;13.40;99.90;;;;;;5091634;28;20042;-84
2023/03/30 11:29:23;;;;;;;16.80;3.15;;;13.40;99.90;;;;;;5102778;28;20039;-83
2023/03/30 11:32:00;;;;;;;12.57;3.30;;;13.40;99.90;;;;;;5107150;28;20499;-83
2023/03/30 11:34:47;;;;;;;14.20;3.05;;;13.40;99.90;;;;;;5111020;27;20031;-84
2023/03/30 11:37:26;;;;;;;16.40;3.72;;;13.50;99.90;;;;;;5109852;27;20062;-83
2023/03/30 11:39:57;;;;;;;16.77;2.72;;;13.60;99.90;;;;;;5106219;28;20024;-84
2023/03/30 11:42:28;;;;;;;17.95;3.42;;;13.80;99.90;;;;;;5083857;28;20433;-84
2023/03/30 11:44:54;;;;;;;18.58;3.97;;;14.00;99.90;;;;;;5101303;27;20511;-84
2023/03/30 11:47:42;;;;;;;15.60;3.10;;;14.20;99.90;;;;;;5105936;27;20520;-84
2023/03/30 11:50:36;;;;;;;18.65;3.70;;;14.40;99.90;;;;;;5110258;27;20467;-86
2023/03/30 11:53:23;;;;;;;21.23;3.28;;;14.40;99.90;;;;;;5107130;28;20050;-84
2023/03/30 11:56:06;;;;;;;17.27;3.45;;;14.40;99.90;;;;;;5111232;27;20445;-83
2023/03/30 11:58:41;;;;;;;11.20;3.00;;;14.30;99.90;;;;;;5098073;28;20552;-85
2023/03/30 12:01:24;;;;;;;22.52;4.15;;;14.20;99.90;;;;;;5089357;27;20087;-87
2023/03/30 12:03:56;;;;;;;17.20;3.40;;;14.10;99.90;;;;;;5133925;27;20032;-88
2023/03/30 12:06:51;;;;;;;17.85;3.75;;;14.10;99.90;;;;;;5103238;28;20499;-86
2023/03/30 12:09:33;;;;;;;22.63;3.95;;;14.10;99.90;;;;;;5075203;28;20047;-86
2023/03/30 12:12:17;;;;;;;23.27;4.40;;;14.10;99.90;;;;;;5105373;27;20036;-88
2023/03/30 12:15:12;;;;;;;16.73;3.53;;;14.00;99.90;;;;;;5116681;27;20036;-86
2023/03/30 12:18:31;;;;;;;15.93;3.60;;;14.00;99.90;;;;;;5121588;27;20071;-85
2023/03/30 12:21:31;;;;;;;20.52;3.53;;;14.00;99.90;;;;;;5032648;28;20039;-84
2023/03/30 12:24:11;;;;;;;21.88;4.20;;;14.00;99.90;;;;;;5099448;28;20503;-84
2023/03/30 12:26:37;;;;;;;18.40;3.97;;;14.00;99.90;;;;;;5100637;28;20032;-84
2023/03/30 12:29:03;;;;;;;18.10;3.38;;;14.10;99.90;;;;;;5100645;28;20422;-86
2023/03/30 12:31:57;;;;;;;16.77;3.50;;;14.20;99.90;;;;;;5109333;28;20104;-85
2023/03/30 12:34:27;;;;;;;17.83;3.15;;;14.10;99.90;;;;;;5096172;28;20049;-87
2023/03/30 12:37:11;;;;;;;16.75;3.90;;;14.00;99.90;;;;;;5109802;28;20084;-84
2023/03/30 12:39:47;;;;;;;20.48;3.38;;;13.90;99.90;;;;;;5105075;28;20044;-88
2023/03/30 12:42:33;;;;;;;16.40;3.17;;;13.90;99.90;;;;;;5091560;28;20034;-87
2023/03/30 12:45:11;;;;;;;17.50;3.25;;;14.10;99.90;;;;;;5111049;28;20043;-86
2023/03/30 12:48:01;;;;;;;11.93;2.75;;;14.20;99.90;;;;;;5111930;28;20445;-86
2023/03/30 12:51:04;;;;;;;20.02;3.45;;;14.20;99.90;;;;;;5103842;28;20035;-85
2023/03/30 12:53:46;;;;;;;17.92;3.25;;;14.10;99.90;;;;;;5107942;28;20044;-85
2023/03/30 12:56:44;;;;;;;16.40;4.18;;;14.50;99.90;;;;;;5135549;27;20464;-86
2023/03/30 12:59:37;;;;;;;16.80;3.50;;;14.80;99.90;;;;;;5114150;28;20047;-86
2023/03/30 13:02:29;;;;;;;17.80;3.60;;;14.70;99.90;;;;;;5113621;28;20042;-86
2023/03/30 13:04:55;;;;;;;17.02;3.58;;;14.80;99.90;;;;;;5080157;28;20090;-87
2023/03/30 13:07:24;;;;;;;16.15;3.08;;;14.90;99.90;;;;;;5103107;28;20051;-87
2023/03/30 13:09:59;;;;;;;17.75;3.33;;;14.90;99.90;;;;;;5104620;28;20438;-85